createdAt,value
2023-03-18T00:00:12.787Z,9.53
2023-03-18T00:02:43.347Z,8.37
2023-03-18T00:05:13.001Z,10.43
2023-03-18T00:07:41.594Z,6.67
2023-03-18T00:10:12.402Z,7.70
2023-03-18T00:12:42.229Z,7.23
2023-03-18T00:15:12.882Z,10.50
2023-03-18T00:17:42.587Z,8.80
2023-03-18T00:20:13.109Z,6.10
2023-03-18T00:22:43.388Z,6.50
2023-03-18T00:25:13.878Z,9.20
2023-03-18T00:27:42.403Z,10.80
2023-03-18T00:30:12.423Z,8.30
2023-03-18T00:32:42.612Z,6.07
2023-03-18T00:35:12.241Z,7.73
2023-03-18T00:37:40.833Z,7.67
2023-03-18T00:40:17.293Z,7.23
2023-03-18T00:42:50.625Z,7.97
2023-03-18T00:45:19.485Z,8.10
2023-03-18T00:47:49.513Z,8.07
2023-03-18T00:50:18.371Z,5.73
2023-03-18T00:52:47.411Z,8.43
2023-03-18T00:55:15.818Z,7.87
2023-03-18T00:57:44.057Z,6.33
2023-03-18T01:00:13.417Z,8.70
2023-03-18T01:02:43.095Z,8.40
2023-03-18T01:05:15.216Z,11.57
2023-03-18T01:07:43.582Z,9.37
2023-03-18T01:10:14.604Z,8.33
2023-03-18T01:12:43.183Z,7.40
2023-03-18T01:15:13.864Z,7.33
2023-03-18T01:17:42.554Z,5.97
2023-03-18T01:20:13.952Z,8.57
2023-03-18T01:22:42.631Z,10.07
2023-03-18T01:25:11.784Z,9.93
2023-03-18T01:27:40.987Z,7.67
2023-03-18T01:30:10.544Z,10.53
2023-03-18T01:32:39.126Z,9.10
2023-03-18T01:35:08.526Z,6.90
2023-03-18T01:37:38.205Z,6.77
2023-03-18T01:40:08.996Z,8.50
2023-03-18T01:42:37.685Z,9.53
2023-03-18T01:45:19.601Z,9.20
2023-03-18T01:47:49.925Z,7.90
2023-03-18T01:50:23.173Z,11.77
2023-03-18T01:52:56.405Z,7.47
2023-03-18T01:55:28.388Z,8.17
2023-03-18T01:57:58.435Z,5.97
2023-03-18T02:00:28.582Z,10.13
2023-03-18T02:02:56.831Z,7.97
2023-03-18T02:05:27.959Z,11.90
2023-03-18T02:07:57.840Z,11.03
2023-03-18T02:10:29.081Z,10.07
2023-03-18T02:13:00.515Z,10.57
2023-03-18T02:15:30.850Z,12.77
2023-03-18T02:18:01.866Z,8.30
2023-03-18T02:20:52.845Z,14.07
2023-03-18T02:23:29.926Z,10.07
2023-03-18T02:26:07.255Z,14.50
2023-03-18T02:28:39.786Z,14.67
2023-03-18T02:31:13.835Z,13.77
2023-03-18T02:33:43.892Z,11.73
2023-03-18T02:36:19.262Z,10.40
2023-03-18T02:38:48.685Z,12.00
2023-03-18T02:41:19.319Z,15.07
2023-03-18T02:43:50.434Z,13.17
2023-03-18T02:46:33.088Z,15.67
2023-03-18T02:49:04.692Z,10.40
2023-03-18T02:51:33.330Z,11.83
2023-03-18T02:54:07.001Z,14.70
2023-03-18T02:56:35.492Z,16.50
2023-03-18T02:59:05.765Z,15.80
2023-03-18T03:01:35.364Z,15.63
2023-03-18T03:04:04.303Z,17.73
2023-03-18T03:06:32.817Z,12.70
2023-03-18T03:09:02.847Z,19.53
2023-03-18T03:11:31.273Z,17.37
2023-03-18T03:13:59.478Z,17.27
2023-03-18T03:16:29.620Z,12.73
2023-03-18T03:18:57.787Z,14.90
2023-03-18T03:21:26.666Z,13.50
2023-03-18T03:23:55.622Z,14.83
2023-03-18T03:26:23.984Z,16.83
2023-03-18T03:28:52.534Z,17.60
2023-03-18T03:31:21.030Z,16.93
2023-03-18T03:33:50.799Z,14.47
2023-03-18T03:36:19.135Z,17.07
2023-03-18T03:38:48.429Z,14.10
2023-03-18T03:41:17.159Z,14.23
2023-03-18T03:43:45.859Z,15.03
2023-03-18T03:46:14.620Z,16.80
2023-03-18T03:48:42.938Z,17.17
2023-03-18T03:51:12.544Z,13.10
2023-03-18T03:53:41.508Z,17.73
2023-03-18T03:56:11.482Z,13.93
2023-03-18T03:58:40.179Z,17.07
2023-03-18T04:01:09.004Z,12.37
2023-03-18T04:03:37.153Z,15.70
2023-03-18T04:06:06.967Z,15.40
2023-03-18T04:08:37.019Z,16.97
2023-03-18T04:11:05.700Z,16.03
2023-03-18T04:13:34.198Z,16.13
2023-03-18T04:16:03.098Z,14.60
2023-03-18T04:18:31.890Z,11.97
2023-03-18T04:21:00.628Z,17.00
2023-03-18T04:23:29.255Z,17.20
2023-03-18T04:25:59.275Z,15.60
2023-03-18T04:28:27.529Z,11.47
2023-03-18T04:30:56.080Z,16.27
2023-03-18T04:33:24.646Z,18.53
2023-03-18T04:35:53.524Z,16.23
2023-03-18T04:38:22.178Z,17.47
2023-03-18T04:40:50.880Z,14.13
2023-03-18T04:43:20.379Z,13.80
2023-03-18T04:45:49.543Z,9.87
2023-03-18T04:48:18.246Z,16.87
2023-03-18T04:50:46.539Z,10.87
2023-03-18T04:53:14.855Z,15.30
2023-03-18T04:55:44.139Z,17.70
2023-03-18T04:58:12.380Z,19.17
2023-03-18T05:00:42.996Z,17.40
2023-03-18T05:03:12.054Z,13.70
2023-03-18T05:05:40.213Z,15.43
2023-03-18T05:08:09.041Z,16.67
2023-03-18T05:10:38.467Z,19.10
2023-03-18T05:13:06.908Z,19.00
2023-03-18T05:15:36.160Z,17.60
2023-03-18T05:18:06.121Z,19.57
2023-03-18T05:20:34.379Z,19.47
2023-03-18T05:23:03.428Z,17.30
2023-03-18T05:25:32.291Z,14.00
2023-03-18T05:28:00.550Z,18.87
2023-03-18T05:30:29.183Z,20.73
2023-03-18T05:32:58.543Z,17.93
2023-03-18T05:35:28.195Z,18.17
2023-03-18T05:37:56.819Z,15.70
2023-03-18T05:40:25.032Z,20.03
2023-03-18T05:42:56.494Z,19.57
2023-03-18T05:45:25.602Z,14.10
2023-03-18T05:47:53.831Z,16.03
2023-03-18T05:50:31.923Z,17.90
2023-03-18T05:53:00.815Z,16.17
2023-03-18T05:55:29.568Z,9.50
2023-03-18T05:57:59.131Z,17.60
2023-03-18T06:00:30.064Z,15.43
2023-03-18T06:02:59.524Z,15.47
2023-03-18T06:05:29.139Z,18.00
2023-03-18T06:07:59.513Z,18.50
2023-03-18T06:10:28.281Z,16.17
2023-03-18T06:12:57.240Z,19.57
2023-03-18T06:15:25.776Z,19.10
2023-03-18T06:17:54.109Z,20.40
2023-03-18T06:20:23.606Z,18.07
2023-03-18T06:22:51.933Z,18.23
2023-03-18T06:25:23.337Z,11.63
2023-03-18T06:27:52.384Z,18.47
2023-03-18T06:30:20.881Z,19.10
2023-03-18T06:32:49.734Z,11.67
2023-03-18T06:35:19.036Z,15.50
2023-03-18T06:37:47.437Z,13.70
2023-03-18T06:40:15.699Z,17.23
2023-03-18T06:42:45.763Z,20.03
2023-03-18T06:45:15.326Z,16.10
2023-03-18T06:47:43.576Z,14.50
2023-03-18T06:50:13.761Z,18.20
2023-03-18T06:52:42.373Z,17.43
2023-03-18T06:55:11.030Z,17.07
2023-03-18T06:57:40.390Z,18.80
2023-03-18T07:00:11.606Z,16.93
2023-03-18T07:02:40.390Z,15.50
2023-03-18T07:05:10.191Z,17.27
2023-03-18T07:07:38.728Z,16.70
2023-03-18T07:10:09.244Z,12.10
2023-03-18T07:12:37.476Z,17.50
2023-03-18T07:15:06.408Z,16.07
2023-03-18T07:17:37.368Z,17.77
2023-03-18T07:20:07.631Z,19.17
2023-03-18T07:22:37.395Z,16.13
2023-03-18T07:25:06.292Z,18.77
2023-03-18T07:27:35.126Z,17.47
2023-03-18T07:30:03.655Z,18.00
2023-03-18T07:32:31.982Z,16.20
2023-03-18T07:35:03.424Z,15.67
2023-03-18T07:37:31.790Z,16.87
2023-03-18T07:40:00.010Z,17.03
2023-03-18T07:42:28.942Z,10.77
2023-03-18T07:44:58.086Z,15.40
2023-03-18T07:47:26.233Z,14.77
2023-03-18T07:49:54.793Z,13.20
2023-03-18T07:52:24.804Z,11.50
2023-03-18T07:54:53.084Z,17.40
2023-03-18T07:57:21.791Z,17.37
2023-03-18T07:59:50.612Z,15.63
2023-03-18T08:02:18.822Z,19.17
2023-03-18T08:04:47.716Z,19.97
2023-03-18T08:07:17.224Z,13.67
2023-03-18T08:09:47.032Z,12.70
2023-03-18T08:12:18.819Z,14.53
2023-03-18T08:14:48.353Z,15.93
2023-03-18T08:17:16.491Z,12.23
2023-03-18T08:19:45.179Z,17.47
2023-03-18T08:22:14.525Z,18.23
2023-03-18T08:24:45.156Z,17.97
2023-03-18T08:27:15.263Z,18.93
2023-03-18T08:29:43.480Z,14.93
2023-03-18T08:32:12.727Z,17.17
2023-03-18T08:34:41.855Z,17.77
2023-03-18T08:37:10.268Z,16.57
2023-03-18T08:39:38.521Z,16.60
2023-03-18T08:42:07.839Z,18.37
2023-03-18T08:44:37.602Z,16.37
2023-03-18T08:47:06.704Z,12.50
2023-03-18T08:49:35.597Z,17.63
2023-03-18T08:52:04.232Z,14.33
2023-03-18T08:54:32.448Z,15.80
2023-03-18T08:57:01.561Z,18.87
2023-03-18T08:59:29.769Z,15.70
2023-03-18T09:01:59.341Z,17.53
2023-03-18T09:04:28.049Z,19.97
2023-03-18T09:06:56.854Z,14.70
2023-03-18T09:09:40.844Z,18.57
2023-03-18T09:12:12.841Z,18.40
2023-03-18T09:14:42.490Z,17.63
2023-03-18T09:17:13.420Z,16.73
2023-03-18T09:19:41.542Z,17.47
2023-03-18T09:22:10.359Z,17.10
2023-03-18T09:24:39.684Z,16.73
2023-03-18T09:27:08.050Z,16.20
2023-03-18T09:29:36.674Z,16.90
2023-03-18T09:32:06.212Z,16.33
2023-03-18T09:34:36.223Z,17.30
2023-03-18T09:37:04.885Z,15.60
2023-03-18T09:39:33.486Z,12.43
2023-03-18T09:42:22.820Z,11.97
2023-03-18T09:44:56.636Z,14.27
2023-03-18T09:48:01.263Z,15.50
2023-03-18T09:50:39.819Z,10.30
2023-03-18T09:53:18.100Z,13.57
2023-03-18T09:55:49.849Z,15.77
2023-03-18T09:58:23.589Z,16.40
2023-03-18T10:00:55.472Z,16.20
2023-03-18T10:03:35.662Z,15.47
2023-03-18T10:06:09.228Z,15.23
2023-03-18T10:08:46.494Z,13.73
2023-03-18T10:11:22.103Z,6.00
2023-03-18T10:14:16.669Z,12.20
2023-03-18T10:16:54.621Z,12.30
2023-03-18T10:19:23.794Z,10.40
2023-03-18T10:22:05.376Z,15.07
2023-03-18T10:24:39.187Z,14.57
2023-03-18T10:27:19.220Z,14.73
2023-03-18T10:29:51.903Z,8.93
2023-03-18T10:32:46.348Z,14.73
2023-03-18T10:35:27.145Z,12.70
2023-03-18T10:38:04.945Z,8.67
2023-03-18T10:40:37.309Z,14.37
2023-03-18T10:43:11.337Z,10.77
2023-03-18T10:45:39.745Z,10.43
2023-03-18T10:48:13.980Z,12.63
2023-03-18T10:50:44.943Z,12.63
2023-03-18T10:53:22.158Z,9.43
2023-03-18T10:55:58.800Z,12.27
2023-03-18T10:58:29.147Z,14.90
2023-03-18T11:00:57.623Z,9.00
2023-03-18T11:03:28.394Z,10.30
2023-03-18T11:05:57.907Z,9.57
2023-03-18T11:08:34.479Z,12.03
2023-03-18T11:11:24.218Z,8.07
2023-03-18T11:13:54.021Z,13.07
2023-03-18T11:16:39.686Z,14.33
2023-03-18T11:19:29.042Z,16.93
2023-03-18T11:22:19.911Z,13.93
2023-03-18T11:25:03.441Z,10.23
2023-03-18T11:27:39.600Z,7.87
2023-03-18T11:30:33.250Z,11.83
2023-03-18T11:33:07.312Z,11.90
2023-03-18T11:35:41.942Z,9.20
2023-03-18T11:38:17.388Z,16.10
2023-03-18T11:40:47.450Z,17.50
2023-03-18T11:43:19.989Z,13.43
2023-03-18T11:45:52.420Z,14.50
2023-03-18T11:48:29.833Z,12.20
2023-03-18T11:51:12.133Z,15.17
2023-03-18T11:53:52.526Z,17.43
2023-03-18T11:56:31.718Z,11.37
2023-03-18T11:59:29.491Z,16.23
2023-03-18T12:02:13.898Z,10.40
2023-03-18T12:04:56.882Z,16.53
2023-03-18T12:07:38.771Z,11.80
2023-03-18T12:10:20.062Z,16.67
2023-03-18T12:13:03.974Z,14.07
2023-03-18T12:15:43.897Z,13.50
2023-03-18T12:18:24.358Z,16.13
2023-03-18T12:20:54.243Z,12.17
2023-03-18T12:23:54.782Z,16.17
2023-03-18T12:26:31.713Z,17.07
2023-03-18T12:29:34.155Z,16.77
2023-03-18T12:32:15.040Z,16.13
2023-03-18T12:35:16.131Z,17.27
2023-03-18T12:37:55.506Z,15.50
2023-03-18T12:40:47.241Z,15.80
2023-03-18T12:43:31.372Z,17.07
2023-03-18T12:46:05.373Z,16.73
2023-03-18T12:48:44.275Z,19.03
2023-03-18T12:51:16.345Z,12.53
2023-03-18T12:53:48.425Z,21.17
2023-03-18T12:56:21.531Z,17.60
2023-03-18T12:58:53.742Z,16.63
2023-03-18T13:01:28.140Z,14.50
2023-03-18T13:04:00.392Z,17.13
2023-03-18T13:06:35.511Z,16.47
2023-03-18T13:09:08.648Z,23.57
2023-03-18T13:11:55.699Z,19.77
2023-03-18T13:14:31.534Z,18.40
2023-03-18T13:17:02.156Z,11.70
2023-03-18T13:19:32.072Z,19.00
2023-03-18T13:22:12.662Z,16.27
2023-03-18T13:24:52.741Z,20.10
2023-03-18T13:27:40.889Z,19.07
2023-03-18T13:30:19.461Z,19.83
2023-03-18T13:33:23.291Z,19.33
2023-03-18T13:36:10.550Z,19.03
2023-03-18T13:39:12.606Z,17.97
2023-03-18T13:42:05.483Z,21.17
2023-03-18T13:44:39.656Z,18.67
2023-03-18T13:47:10.395Z,17.00
2023-03-18T13:49:41.694Z,15.70
2023-03-18T13:52:25.572Z,19.87
2023-03-18T13:54:54.462Z,15.73
2023-03-18T13:57:37.112Z,13.30
2023-03-18T14:00:26.918Z,18.47
2023-03-18T14:03:19.483Z,15.53
2023-03-18T14:05:50.896Z,17.67
2023-03-18T14:08:46.222Z,20.17
2023-03-18T14:11:50.030Z,16.20
2023-03-18T14:14:58.245Z,19.57
2023-03-18T14:17:46.111Z,19.50
2023-03-18T14:20:27.265Z,19.03
2023-03-18T14:22:58.379Z,16.57
2023-03-18T14:25:42.915Z,18.77
2023-03-18T14:28:21.965Z,19.97
2023-03-18T14:30:58.705Z,20.60
2023-03-18T14:33:49.380Z,16.90
2023-03-18T14:36:18.869Z,18.33
2023-03-18T14:38:56.902Z,19.57
2023-03-18T14:41:29.715Z,20.17
2023-03-18T14:44:10.320Z,19.10
2023-03-18T14:46:43.914Z,18.17
2023-03-18T14:49:35.852Z,14.33
2023-03-18T14:52:07.844Z,17.03
2023-03-18T14:54:46.456Z,18.83
2023-03-18T14:57:16.244Z,19.10
2023-03-18T14:59:45.324Z,14.30
2023-03-18T15:02:24.195Z,15.43
2023-03-18T15:04:54.554Z,20.33
2023-03-18T15:07:29.849Z,19.07
2023-03-18T15:10:02.728Z,20.07
2023-03-18T15:12:31.541Z,21.83
2023-03-18T15:15:00.166Z,19.47
2023-03-18T15:17:28.582Z,16.10
2023-03-18T15:20:01.647Z,15.33
2023-03-18T15:22:32.478Z,18.33
2023-03-18T15:25:05.668Z,17.50
2023-03-18T15:27:36.549Z,20.83
2023-03-18T15:30:08.188Z,19.27
2023-03-18T15:32:46.420Z,19.87
2023-03-18T15:35:18.771Z,21.60
2023-03-18T15:37:48.171Z,18.87
2023-03-18T15:40:27.583Z,20.90
2023-03-18T15:42:57.850Z,19.70
2023-03-18T15:45:30.508Z,22.27
2023-03-18T15:48:05.790Z,23.43
2023-03-18T15:50:34.920Z,21.43
2023-03-18T15:53:17.752Z,18.70
2023-03-18T15:55:53.347Z,21.73
2023-03-18T15:58:25.472Z,21.43
2023-03-18T16:00:55.983Z,20.47
2023-03-18T16:03:25.995Z,21.60
2023-03-18T16:05:55.688Z,19.67
2023-03-18T16:08:24.841Z,24.13
2023-03-18T16:10:57.528Z,20.83
2023-03-18T16:13:28.268Z,17.40
2023-03-18T16:15:57.436Z,21.37
2023-03-18T16:18:25.967Z,23.53
2023-03-18T16:20:55.323Z,24.10
2023-03-18T16:23:23.576Z,22.70
2023-03-18T16:25:56.319Z,22.97
2023-03-18T16:28:26.657Z,22.77
2023-03-18T16:30:56.191Z,21.77
2023-03-18T16:33:26.247Z,27.97
2023-03-18T16:35:58.685Z,23.80
2023-03-18T16:38:28.569Z,23.77
2023-03-18T16:40:59.149Z,24.17
2023-03-18T16:43:29.105Z,24.60
2023-03-18T16:46:01.636Z,25.93
2023-03-18T16:48:29.954Z,25.07
2023-03-18T16:51:01.128Z,26.33
2023-03-18T16:53:32.191Z,27.27
2023-03-18T16:56:05.220Z,26.17
2023-03-18T16:58:36.460Z,24.63
2023-03-18T17:01:06.231Z,25.93
2023-03-18T17:03:36.341Z,27.07
2023-03-18T17:06:07.136Z,27.93
2023-03-18T17:08:36.609Z,26.00
2023-03-18T17:11:07.474Z,30.20
2023-03-18T17:13:38.717Z,27.20
2023-03-18T17:16:15.419Z,29.50
2023-03-18T17:18:44.186Z,28.80
2023-03-18T17:21:13.516Z,27.33
2023-03-18T17:23:42.885Z,29.80
2023-03-18T17:26:15.959Z,26.10
2023-03-18T17:28:46.865Z,28.67
2023-03-18T17:31:15.997Z,18.93
2023-03-18T17:33:44.562Z,26.33
2023-03-18T17:36:12.885Z,25.33
2023-03-18T17:38:41.144Z,24.93
2023-03-18T17:41:17.408Z,24.83
2023-03-18T17:43:45.618Z,28.53
2023-03-18T17:46:13.853Z,25.57
2023-03-18T17:48:42.816Z,26.23
2023-03-18T17:51:16.670Z,31.27
2023-03-18T17:53:48.348Z,30.43
2023-03-18T17:56:20.405Z,30.10
2023-03-18T17:58:50.535Z,29.13
2023-03-18T18:01:21.878Z,26.87
2023-03-18T18:03:50.060Z,26.57
2023-03-18T18:06:20.712Z,28.37
2023-03-18T18:08:49.184Z,29.80
2023-03-18T18:11:22.409Z,30.57
2023-03-18T18:13:51.627Z,29.47
2023-03-18T18:16:21.633Z,32.33
2023-03-18T18:18:50.281Z,33.43
2023-03-18T18:21:21.424Z,36.07
2023-03-18T18:23:50.220Z,32.60
2023-03-18T18:26:22.824Z,32.27
2023-03-18T18:28:52.797Z,31.33
2023-03-18T18:31:23.623Z,28.73
2023-03-18T18:33:52.633Z,30.27
2023-03-18T18:36:21.455Z,28.17
2023-03-18T18:38:50.820Z,28.90
2023-03-18T18:41:20.879Z,28.93
2023-03-18T18:43:49.484Z,26.93
2023-03-18T18:46:18.380Z,28.23
2023-03-18T18:48:49.433Z,26.50
2023-03-18T18:51:20.502Z,27.43
2023-03-18T18:53:49.563Z,27.27
2023-03-18T18:56:23.759Z,29.17
2023-03-18T18:58:53.377Z,27.87
2023-03-18T19:01:21.772Z,27.73
2023-03-18T19:03:50.406Z,24.77
2023-03-18T19:06:29.351Z,26.70
2023-03-18T19:08:59.265Z,27.23
2023-03-18T19:11:29.689Z,27.93
2023-03-18T19:14:17.361Z,25.90
2023-03-18T19:16:46.177Z,26.17
2023-03-18T19:19:15.196Z,25.80
2023-03-18T19:21:44.927Z,26.23
2023-03-18T19:24:26.910Z,26.90
2023-03-18T19:26:58.652Z,26.20
2023-03-18T19:29:27.979Z,28.10
2023-03-18T19:31:56.366Z,26.80
2023-03-18T19:34:25.479Z,24.77
2023-03-18T19:36:56.750Z,29.17
2023-03-18T19:39:27.805Z,26.37
2023-03-18T19:41:57.518Z,26.53
2023-03-18T19:44:27.338Z,26.07
2023-03-18T19:46:57.630Z,26.60
2023-03-18T19:49:28.448Z,26.40
2023-03-18T19:51:57.218Z,30.90
2023-03-18T19:54:29.954Z,26.53
2023-03-18T19:57:02.228Z,24.90
2023-03-18T19:59:38.782Z,24.70
2023-03-18T20:02:20.037Z,25.93
2023-03-18T20:04:49.519Z,24.67
2023-03-18T20:07:18.990Z,27.33
2023-03-18T20:09:47.889Z,31.87
2023-03-18T20:12:24.569Z,27.20
2023-03-18T20:14:53.225Z,30.83
2023-03-18T20:17:34.621Z,26.63
2023-03-18T20:20:03.137Z,29.73
2023-03-18T20:22:34.383Z,24.33
2023-03-18T20:25:03.612Z,30.47
2023-03-18T20:27:33.764Z,25.60
2023-03-18T20:30:02.156Z,24.33
2023-03-18T20:32:30.395Z,24.20
2023-03-18T20:34:58.634Z,23.37
2023-03-18T20:37:33.880Z,23.37
2023-03-18T20:40:02.777Z,25.57
2023-03-18T20:42:33.110Z,33.80
2023-03-18T20:45:01.437Z,24.03
2023-03-18T20:47:29.733Z,23.90
2023-03-18T20:49:57.966Z,23.33
2023-03-18T20:52:29.670Z,22.97
2023-03-18T20:54:58.492Z,23.33
2023-03-18T20:57:27.481Z,23.70
2023-03-18T20:59:57.639Z,23.07
2023-03-18T21:02:31.818Z,23.43
2023-03-18T21:05:02.145Z,24.77
2023-03-18T21:07:31.159Z,24.07
2023-03-18T21:10:00.019Z,24.80
2023-03-18T21:12:28.687Z,23.43
2023-03-18T21:14:58.693Z,23.57
2023-03-18T21:17:28.418Z,23.30
2023-03-18T21:20:11.185Z,23.13
2023-03-18T21:22:44.441Z,24.57
2023-03-18T21:25:20.755Z,23.43
2023-03-18T21:27:49.786Z,24.27
2023-03-18T21:30:22.329Z,25.47
2023-03-18T21:32:51.566Z,25.33
2023-03-18T21:35:21.870Z,22.87
2023-03-18T21:37:50.736Z,21.40
2023-03-18T21:40:21.594Z,23.00
2023-03-18T21:42:50.640Z,20.43
2023-03-18T21:45:23.857Z,24.37
2023-03-18T21:47:52.602Z,22.00
2023-03-18T21:50:24.025Z,23.00
2023-03-18T21:52:52.791Z,23.83
2023-03-18T21:55:22.027Z,22.03
2023-03-18T21:57:50.981Z,25.30
2023-03-18T22:00:22.486Z,23.30
2023-03-18T22:02:51.598Z,18.17
2023-03-18T22:05:21.861Z,16.77
2023-03-18T22:07:50.710Z,16.20
2023-03-18T22:10:22.365Z,16.47
2023-03-18T22:12:51.507Z,17.53
2023-03-18T22:15:38.906Z,17.93
2023-03-18T22:18:08.511Z,21.67
2023-03-18T22:20:37.269Z,21.27
2023-03-18T22:23:14.633Z,21.87
2023-03-18T22:25:43.513Z,28.17
2023-03-18T22:28:12.941Z,19.90
2023-03-18T22:30:44.987Z,22.27
2023-03-18T22:33:22.241Z,18.83
2023-03-18T22:35:50.669Z,17.33
2023-03-18T22:38:20.972Z,25.53
2023-03-18T22:40:52.153Z,16.93
2023-03-18T22:43:31.876Z,21.67
2023-03-18T22:46:02.902Z,19.57
2023-03-18T22:48:31.130Z,20.10
2023-03-18T22:51:00.461Z,17.67
2023-03-18T22:53:32.075Z,19.77
2023-03-18T22:56:06.680Z,20.00
2023-03-18T22:58:35.591Z,20.10
2023-03-18T23:01:05.761Z,21.83
2023-03-18T23:03:36.001Z,21.80
2023-03-18T23:06:05.767Z,24.23
2023-03-18T23:08:34.202Z,24.53
2023-03-18T23:11:03.469Z,24.40
2023-03-18T23:13:36.662Z,22.37
2023-03-18T23:16:08.433Z,24.37
2023-03-18T23:18:37.563Z,24.93
2023-03-18T23:21:06.869Z,31.47
2023-03-18T23:23:35.184Z,20.80
2023-03-18T23:26:03.750Z,20.33
2023-03-18T23:28:38.458Z,21.30
2023-03-18T23:31:14.339Z,23.37
2023-03-18T23:33:43.591Z,19.70
2023-03-18T23:36:12.567Z,21.47
2023-03-18T23:38:41.467Z,27.03
2023-03-18T23:41:10.280Z,25.93
2023-03-18T23:43:38.521Z,23.00
2023-03-18T23:46:07.856Z,25.43
2023-03-18T23:48:37.977Z,39.47
2023-03-18T23:51:06.509Z,30.17
2023-03-18T23:53:34.732Z,26.70
2023-03-18T23:56:03.638Z,24.13
2023-03-18T23:58:31.799Z,26.03
